Terminal Aerodrome Forecast
Issued by NWS

Home | Current Version | Previous Version | Text Only | Print | Product List | Glossary On
Versions: 1 2 3 4 5 6 7 8 9 10 11 12
000
FTUS44 KLIX 220521
TAFHDC
TAF
KHDC 220521Z 2206/2306 13008KT P6SM VCSH SCT015 BKN040
     FM221700 15006KT 6SM SHRA SCT025 OVC045
      TEMPO 2217/2221 2SM TSRA BKN025CB
     FM230000 15004KT P6SM BKN040 BKN090 PROB30 2300/2302 4SM -SHRA
      OVC040
     FM230200 25004KT P6SM BKN040 BKN100 PROB30 2302/2305 4SM -SHRA
      OVC025
     FM230500 31005KT P6SM BKN030 BKN050 PROB30 2305/2306 4SM -SHRA
      OVC015=

USA.gov is the U.S. government's official web portal to all federal, state and local government web resources and services.